createdAt,value
2018-07-20T00:00:46.849Z,20.93
2018-07-20T00:02:39.866Z,20.93
2018-07-20T00:03:39.812Z,20.92
2018-07-20T00:05:32.821Z,20.95
2018-07-20T00:06:32.777Z,20.87
2018-07-20T00:08:25.633Z,20.75
2018-07-20T00:09:25.605Z,20.72
2018-07-20T00:11:18.457Z,20.72
2018-07-20T00:12:18.396Z,20.75
2018-07-20T00:14:11.394Z,20.66
2018-07-20T00:15:11.367Z,20.75
2018-07-20T00:17:04.204Z,20.60
2018-07-20T00:18:04.143Z,20.65
2018-07-20T00:19:57.000Z,20.60
2018-07-20T00:20:56.953Z,20.55
2018-07-20T00:22:49.975Z,20.60
2018-07-20T00:23:49.938Z,20.52
2018-07-20T00:25:42.967Z,20.48
2018-07-20T00:26:42.918Z,20.44
2018-07-20T00:28:36.154Z,20.31
2018-07-20T00:29:36.075Z,20.28
2018-07-20T00:31:29.088Z,20.28
2018-07-20T00:32:29.059Z,20.24
2018-07-20T00:34:22.068Z,20.18
2018-07-20T00:35:22.026Z,20.10
2018-07-20T00:37:15.071Z,20.16
2018-07-20T00:38:15.024Z,20.09
2018-07-20T00:40:08.037Z,20.02
2018-07-20T00:41:08.008Z,20.03
2018-07-20T00:43:01.280Z,19.94
2018-07-20T00:44:01.158Z,19.94
2018-07-20T00:45:54.217Z,19.91
2018-07-20T00:46:54.168Z,19.88
2018-07-20T00:48:47.332Z,19.82
2018-07-20T00:49:47.307Z,19.77
2018-07-20T00:51:40.312Z,19.77
2018-07-20T00:52:40.264Z,19.62
2018-07-20T00:54:33.268Z,19.69
2018-07-20T00:55:33.223Z,19.67
2018-07-20T00:57:26.060Z,19.64
2018-07-20T00:58:26.012Z,19.62
2018-07-20T01:00:19.008Z,19.59
2018-07-20T01:01:18.978Z,19.66
2018-07-20T01:03:12.199Z,19.55
2018-07-20T01:04:12.149Z,19.51
2018-07-20T01:06:05.244Z,19.41
2018-07-20T01:07:05.190Z,19.51
2018-07-20T01:08:58.176Z,19.39
2018-07-20T01:09:58.143Z,19.47
2018-07-20T01:11:51.423Z,19.40
2018-07-20T01:12:51.303Z,19.33
2018-07-20T01:14:44.287Z,19.37
2018-07-20T01:15:44.268Z,19.29
2018-07-20T01:17:37.256Z,19.24
2018-07-20T01:18:37.226Z,19.19
2018-07-20T01:20:30.639Z,19.27
2018-07-20T01:21:30.035Z,19.21
2018-07-20T01:23:23.096Z,19.29
2018-07-20T01:24:23.039Z,19.22
2018-07-20T01:26:16.061Z,19.15
2018-07-20T01:27:16.010Z,19.18
2018-07-20T01:29:08.850Z,19.09
2018-07-20T01:30:08.815Z,19.11
2018-07-20T01:32:01.788Z,19.07
2018-07-20T01:33:01.605Z,19.09
2018-07-20T01:34:54.611Z,19.08
2018-07-20T01:35:54.583Z,19.02
2018-07-20T01:37:47.584Z,19.00
2018-07-20T01:38:47.536Z,18.89
2018-07-20T01:40:40.436Z,18.95
2018-07-20T01:41:40.409Z,18.95
2018-07-20T01:43:33.439Z,18.93
2018-07-20T01:44:33.383Z,18.88
2018-07-20T01:46:26.383Z,18.81
2018-07-20T01:47:26.349Z,18.88
2018-07-20T01:49:19.213Z,18.80
2018-07-20T01:50:19.170Z,18.75
2018-07-20T01:52:11.994Z,18.84
2018-07-20T01:53:11.949Z,18.75
2018-07-20T01:55:04.961Z,18.73
2018-07-20T01:56:04.909Z,18.77
2018-07-20T01:57:57.737Z,18.63
2018-07-20T01:58:57.735Z,18.59
2018-07-20T02:00:50.520Z,18.58
2018-07-20T02:01:50.466Z,18.68
2018-07-20T02:03:43.315Z,18.55
2018-07-20T02:04:43.257Z,18.58
2018-07-20T02:06:36.280Z,18.56
2018-07-20T02:07:36.235Z,18.53
2018-07-20T02:09:29.245Z,18.49
2018-07-20T02:10:29.256Z,18.50
2018-07-20T02:12:22.011Z,18.50
2018-07-20T02:13:21.980Z,18.47
2018-07-20T02:15:15.110Z,18.47
2018-07-20T02:16:15.058Z,18.45
2018-07-20T02:18:08.057Z,18.50
2018-07-20T02:19:08.051Z,18.45
2018-07-20T02:21:01.312Z,18.45
2018-07-20T02:22:01.153Z,18.49
2018-07-20T02:23:54.160Z,18.43
2018-07-20T02:24:54.106Z,18.43
2018-07-20T02:26:47.105Z,18.43
2018-07-20T02:27:47.062Z,18.35
2018-07-20T02:29:39.980Z,18.37
2018-07-20T02:30:39.927Z,18.31
2018-07-20T02:32:32.921Z,18.33
2018-07-20T02:33:32.885Z,18.26
2018-07-20T02:35:25.896Z,18.26
2018-07-20T02:36:25.846Z,18.25
2018-07-20T02:38:18.951Z,18.19
2018-07-20T02:39:18.808Z,18.13
2018-07-20T02:41:11.816Z,18.10
2018-07-20T02:42:11.772Z,18.05
2018-07-20T02:44:04.590Z,18.10
2018-07-20T02:45:04.551Z,18.08
2018-07-20T02:46:57.738Z,17.92
2018-07-20T02:47:57.681Z,17.87
2018-07-20T02:49:50.697Z,17.86
2018-07-20T02:50:50.626Z,17.85
2018-07-20T02:52:43.645Z,17.85
2018-07-20T02:53:43.621Z,17.79
2018-07-20T02:55:36.560Z,17.82
2018-07-20T02:56:36.510Z,17.76
2018-07-20T02:58:29.489Z,17.85
2018-07-20T02:59:29.459Z,17.76
2018-07-20T03:01:22.284Z,17.76
2018-07-20T03:02:22.249Z,17.78
2018-07-20T03:04:15.242Z,17.70
2018-07-20T03:05:15.207Z,17.65
2018-07-20T03:07:08.234Z,17.64
2018-07-20T03:08:08.192Z,17.70
2018-07-20T03:10:01.248Z,17.65
2018-07-20T03:11:01.203Z,17.67
2018-07-20T03:12:54.439Z,17.60
2018-07-20T03:13:54.309Z,17.57
2018-07-20T03:15:47.331Z,17.59
2018-07-20T03:16:47.285Z,17.46
2018-07-20T03:18:40.103Z,17.52
2018-07-20T03:19:40.078Z,17.46
2018-07-20T03:21:33.231Z,17.52
2018-07-20T03:22:33.170Z,17.63
2018-07-20T03:24:26.180Z,17.60
2018-07-20T03:25:26.145Z,17.64
2018-07-20T03:27:19.197Z,17.59
2018-07-20T03:28:19.150Z,17.57
2018-07-20T03:30:12.207Z,17.59
2018-07-20T03:31:12.148Z,17.64
2018-07-20T03:33:05.158Z,17.60
2018-07-20T03:34:05.113Z,17.68
2018-07-20T03:35:58.349Z,17.70
2018-07-20T03:36:58.224Z,17.68
2018-07-20T03:38:51.234Z,17.76
2018-07-20T03:39:51.173Z,17.68
2018-07-20T03:41:43.994Z,17.79
2018-07-20T03:42:43.984Z,17.78
2018-07-20T03:44:37.215Z,17.78
2018-07-20T03:45:37.101Z,17.71
2018-07-20T03:47:30.106Z,17.72
2018-07-20T03:48:30.101Z,17.78
2018-07-20T03:50:23.090Z,17.78
2018-07-20T03:51:23.030Z,17.80
2018-07-20T03:53:15.884Z,17.72
2018-07-20T03:54:15.834Z,17.78
2018-07-20T03:56:08.833Z,17.76
2018-07-20T03:57:08.800Z,17.71
2018-07-20T03:59:01.803Z,17.64
2018-07-20T04:00:01.789Z,17.67
2018-07-20T04:01:54.670Z,17.63
2018-07-20T04:02:54.530Z,17.70
2018-07-20T04:04:47.656Z,17.63
2018-07-20T04:05:47.591Z,17.63
2018-07-20T04:07:40.576Z,17.65
2018-07-20T04:08:40.602Z,17.59
2018-07-20T04:10:33.836Z,17.59
2018-07-20T04:11:33.674Z,17.70
2018-07-20T04:13:26.656Z,17.63
2018-07-20T04:14:26.624Z,17.60
2018-07-20T04:16:19.632Z,17.59
2018-07-20T04:17:19.580Z,17.56
2018-07-20T04:19:12.597Z,17.67
2018-07-20T04:20:12.471Z,17.54
2018-07-20T04:22:05.331Z,17.51
2018-07-20T04:23:05.247Z,17.56
2018-07-20T04:24:58.241Z,17.52
2018-07-20T04:25:58.197Z,17.57
2018-07-20T04:27:51.167Z,17.38
2018-07-20T04:28:51.133Z,17.46
2018-07-20T04:30:44.053Z,17.48
2018-07-20T04:31:43.946Z,17.52
2018-07-20T04:33:36.777Z,17.52
2018-07-20T04:34:36.721Z,17.42
2018-07-20T04:36:29.907Z,17.49
2018-07-20T04:37:29.700Z,17.42
2018-07-20T04:39:22.542Z,17.41
2018-07-20T04:40:22.510Z,17.41
2018-07-20T04:42:15.342Z,17.42
2018-07-20T04:43:15.283Z,17.45
2018-07-20T04:45:08.093Z,17.48
2018-07-20T04:46:08.062Z,17.33
2018-07-20T04:48:01.069Z,17.42
2018-07-20T04:49:01.024Z,17.34
2018-07-20T04:50:54.038Z,17.44
2018-07-20T04:51:53.978Z,17.31
2018-07-20T04:53:46.808Z,17.30
2018-07-20T04:54:46.764Z,17.34
2018-07-20T04:56:39.775Z,17.45
2018-07-20T04:57:39.719Z,17.33
2018-07-20T04:59:32.776Z,17.34
2018-07-20T05:00:32.771Z,17.38
2018-07-20T05:02:25.961Z,17.45
2018-07-20T05:03:25.838Z,17.51
2018-07-20T05:05:18.823Z,17.54
2018-07-20T05:06:18.788Z,17.51
2018-07-20T05:08:11.798Z,17.59
2018-07-20T05:09:11.754Z,17.56
2018-07-20T05:11:04.572Z,17.49
2018-07-20T05:12:04.537Z,17.57
2018-07-20T05:13:57.584Z,17.56
2018-07-20T05:14:57.481Z,17.56
2018-07-20T05:16:50.512Z,17.54
2018-07-20T05:17:50.467Z,17.54
2018-07-20T05:19:43.627Z,17.52
2018-07-20T05:20:43.572Z,17.54
2018-07-20T05:22:36.604Z,17.71
2018-07-20T05:23:36.550Z,17.64
2018-07-20T05:25:29.537Z,17.63
2018-07-20T05:26:29.483Z,17.68
2018-07-20T05:28:22.499Z,17.72
2018-07-20T05:29:22.329Z,17.80
2018-07-20T05:31:15.136Z,17.85
2018-07-20T05:32:15.106Z,17.76
2018-07-20T05:34:08.153Z,17.78
2018-07-20T05:35:08.196Z,17.79
2018-07-20T05:37:01.370Z,17.85
2018-07-20T05:38:01.245Z,17.79
2018-07-20T05:39:54.243Z,17.80
2018-07-20T05:40:54.190Z,17.89
2018-07-20T05:42:47.176Z,17.86
2018-07-20T05:43:47.148Z,17.87
2018-07-20T05:45:40.014Z,17.90
2018-07-20T05:46:39.966Z,17.97
2018-07-20T05:48:32.956Z,17.95
2018-07-20T05:49:32.942Z,18.03
2018-07-20T05:51:25.953Z,17.97
2018-07-20T05:52:25.909Z,18.10
2018-07-20T05:54:19.094Z,18.10
2018-07-20T05:55:18.984Z,18.13
2018-07-20T05:57:12.000Z,18.08
2018-07-20T05:58:11.979Z,18.13
2018-07-20T06:00:04.971Z,18.15
2018-07-20T06:01:04.923Z,18.18
2018-07-20T06:02:57.769Z,18.23
2018-07-20T06:03:57.778Z,18.22
2018-07-20T06:05:50.782Z,18.35
2018-07-20T06:06:50.755Z,18.35
2018-07-20T06:08:43.729Z,18.38
2018-07-20T06:09:43.690Z,18.41
2018-07-20T06:11:36.646Z,18.45
2018-07-20T06:12:36.597Z,18.45
2018-07-20T06:14:29.573Z,18.60
2018-07-20T06:15:29.543Z,18.56
2018-07-20T06:17:22.395Z,18.63
2018-07-20T06:18:22.355Z,18.71
2018-07-20T06:20:15.655Z,18.78
2018-07-20T06:21:15.480Z,18.83
2018-07-20T06:23:08.681Z,18.93
2018-07-20T06:24:08.649Z,18.95
2018-07-20T06:26:01.892Z,18.92
2018-07-20T06:27:01.716Z,19.00
2018-07-20T06:28:54.728Z,19.11
2018-07-20T06:29:54.736Z,19.15
2018-07-20T06:31:47.702Z,19.29
2018-07-20T06:32:47.652Z,19.29
2018-07-20T06:34:40.486Z,19.33
2018-07-20T06:35:40.447Z,19.34
2018-07-20T06:37:33.449Z,19.30
2018-07-20T06:38:33.401Z,19.37
2018-07-20T06:40:26.435Z,19.51
2018-07-20T06:41:26.387Z,19.51
2018-07-20T06:43:19.534Z,19.54
2018-07-20T06:44:19.476Z,19.59
2018-07-20T06:46:12.490Z,19.66
2018-07-20T06:47:12.440Z,19.74
2018-07-20T06:49:05.426Z,19.77
2018-07-20T06:50:05.393Z,19.81
2018-07-20T06:51:58.271Z,19.86
2018-07-20T06:52:58.222Z,19.91
2018-07-20T06:54:51.208Z,19.99
2018-07-20T06:55:51.226Z,20.04
2018-07-20T06:57:44.190Z,20.09
2018-07-20T06:58:44.133Z,20.11
2018-07-20T07:00:37.316Z,20.16
2018-07-20T07:01:37.238Z,20.24
2018-07-20T07:03:30.252Z,20.31
2018-07-20T07:04:30.197Z,20.43
2018-07-20T07:06:23.181Z,20.55
2018-07-20T07:07:23.142Z,20.52
2018-07-20T07:09:16.189Z,20.65
2018-07-20T07:10:16.143Z,20.67
2018-07-20T07:12:09.144Z,20.67
2018-07-20T07:13:09.136Z,20.70
2018-07-20T07:15:02.250Z,20.78
2018-07-20T07:16:02.206Z,20.80
2018-07-20T07:17:55.234Z,20.85
2018-07-20T07:18:55.197Z,20.88
2018-07-20T07:20:48.179Z,20.90
2018-07-20T07:21:48.137Z,21.05
2018-07-20T07:23:41.112Z,21.11
2018-07-20T07:24:41.022Z,21.12
2018-07-20T07:26:34.000Z,21.12
2018-07-20T07:27:33.963Z,21.09
2018-07-20T07:29:26.797Z,21.15
2018-07-20T07:30:26.759Z,21.22
2018-07-20T07:32:19.569Z,21.29
2018-07-20T07:33:19.584Z,21.35
2018-07-20T07:35:12.828Z,21.40
2018-07-20T07:36:12.650Z,21.35
2018-07-20T07:38:05.499Z,21.54
2018-07-20T07:39:05.439Z,21.54
2018-07-20T07:40:58.528Z,21.60
2018-07-20T07:41:58.503Z,21.60
2018-07-20T07:43:51.354Z,21.58
2018-07-20T07:44:51.310Z,21.57
2018-07-20T07:46:44.304Z,21.72
2018-07-20T07:47:44.270Z,21.76
2018-07-20T07:49:37.319Z,21.88
2018-07-20T07:50:37.258Z,21.95
2018-07-20T07:52:30.413Z,22.00
2018-07-20T07:53:30.374Z,22.11
2018-07-20T07:55:23.404Z,22.06
2018-07-20T07:56:23.352Z,22.23
2018-07-20T07:58:16.331Z,22.14
2018-07-20T07:59:16.306Z,22.28
2018-07-20T08:01:09.414Z,22.43
2018-07-20T08:02:09.335Z,22.38
2018-07-20T08:04:02.335Z,22.35
2018-07-20T08:05:02.295Z,22.38
2018-07-20T08:06:55.515Z,22.44
2018-07-20T08:07:55.410Z,22.55
2018-07-20T08:09:48.492Z,22.55
2018-07-20T08:10:48.370Z,22.66
2018-07-20T08:12:41.350Z,22.75
2018-07-20T08:13:41.324Z,22.81
2018-07-20T08:15:34.201Z,22.78
2018-07-20T08:16:34.147Z,22.75
2018-07-20T08:18:27.131Z,22.88
2018-07-20T08:19:27.116Z,22.91
2018-07-20T08:21:19.946Z,22.91
2018-07-20T08:22:19.897Z,23.06
2018-07-20T08:24:12.867Z,23.10
2018-07-20T08:25:12.846Z,23.21
2018-07-20T08:27:05.714Z,23.20
2018-07-20T08:28:05.665Z,23.18
2018-07-20T08:29:58.687Z,23.27
2018-07-20T08:30:58.623Z,23.32
2018-07-20T08:32:51.646Z,23.40
2018-07-20T08:33:51.620Z,23.50
2018-07-20T08:35:44.755Z,23.61
2018-07-20T08:36:44.697Z,23.63
2018-07-20T08:38:37.705Z,23.77
2018-07-20T08:39:37.756Z,23.74
2018-07-20T08:41:30.912Z,23.93
2018-07-20T08:42:30.810Z,23.93
2018-07-20T08:44:23.810Z,24.02
2018-07-20T08:45:23.785Z,24.01
2018-07-20T08:47:16.815Z,24.13
2018-07-20T08:48:16.757Z,24.13
2018-07-20T08:50:09.585Z,24.28
2018-07-20T08:51:09.558Z,24.26
2018-07-20T08:53:02.454Z,24.33
2018-07-20T08:54:02.369Z,24.45
2018-07-20T08:55:55.393Z,24.63
2018-07-20T08:56:55.332Z,24.73
2018-07-20T08:58:48.341Z,24.73
2018-07-20T08:59:48.304Z,24.73
2018-07-20T09:01:41.286Z,24.81
2018-07-20T09:02:41.099Z,24.93
2018-07-20T09:04:34.111Z,25.01
2018-07-20T09:05:34.084Z,25.11
2018-07-20T09:07:27.106Z,25.01
2018-07-20T09:08:27.067Z,25.06
2018-07-20T09:10:19.893Z,25.10
2018-07-20T09:11:19.864Z,25.18
2018-07-20T09:13:12.882Z,25.18
2018-07-20T09:14:12.829Z,25.25
2018-07-20T09:16:05.826Z,25.32
2018-07-20T09:17:05.802Z,25.35
2018-07-20T09:18:59.013Z,25.51
2018-07-20T09:19:58.923Z,25.53
2018-07-20T09:21:51.946Z,25.50
2018-07-20T09:22:51.907Z,25.69
2018-07-20T09:24:44.985Z,25.73
2018-07-20T09:25:44.923Z,25.68
2018-07-20T09:27:37.973Z,25.83
2018-07-20T09:28:37.938Z,25.90
2018-07-20T09:30:30.952Z,25.87
2018-07-20T09:31:30.990Z,25.96
2018-07-20T09:33:24.737Z,26.06
2018-07-20T09:34:24.126Z,26.19
2018-07-20T09:36:17.319Z,26.07
2018-07-20T09:37:17.119Z,26.10
2018-07-20T09:39:10.362Z,26.21
2018-07-20T09:40:10.278Z,26.28
2018-07-20T09:42:03.472Z,26.34
2018-07-20T09:43:03.573Z,26.43
2018-07-20T09:44:56.227Z,26.43
2018-07-20T09:45:56.201Z,26.43
2018-07-20T09:47:49.195Z,26.65
2018-07-20T09:48:49.174Z,26.73
2018-07-20T09:50:42.619Z,26.81
2018-07-20T09:51:42.261Z,26.73
2018-07-20T09:53:35.385Z,26.80
2018-07-20T09:54:35.343Z,26.89
2018-07-20T09:56:28.160Z,27.02
2018-07-20T09:57:28.131Z,27.12
2018-07-20T09:59:21.192Z,27.27
2018-07-20T10:00:21.109Z,27.21
2018-07-20T10:02:14.310Z,27.32
2018-07-20T10:03:14.281Z,27.59
2018-07-20T10:05:07.381Z,27.63
2018-07-20T10:06:07.267Z,27.77
2018-07-20T10:08:00.471Z,28.00
2018-07-20T10:09:00.399Z,28.38
2018-07-20T10:10:53.438Z,28.79
2018-07-20T10:11:53.524Z,29.23
2018-07-20T10:13:46.244Z,30.13
2018-07-20T10:14:46.211Z,30.65
2018-07-20T10:16:39.071Z,31.49
2018-07-20T10:17:39.019Z,31.81
2018-07-20T10:19:32.047Z,32.55
2018-07-20T10:20:32.031Z,32.12
2018-07-20T10:22:24.883Z,32.46
2018-07-20T10:23:24.849Z,32.83
2018-07-20T10:25:17.981Z,32.74
2018-07-20T10:26:17.947Z,33.17
2018-07-20T10:28:10.995Z,33.59
2018-07-20T10:29:10.966Z,33.83
2018-07-20T10:31:04.051Z,33.59
2018-07-20T10:32:04.027Z,33.92
2018-07-20T10:33:56.860Z,33.95
2018-07-20T10:34:56.835Z,34.20
2018-07-20T10:36:49.911Z,34.24
2018-07-20T10:37:49.869Z,34.39
2018-07-20T10:39:42.927Z,34.54
2018-07-20T10:40:42.916Z,34.32
2018-07-20T10:42:35.976Z,34.55
2018-07-20T10:43:35.941Z,34.85
2018-07-20T10:45:28.995Z,34.29
2018-07-20T10:46:28.959Z,34.54
2018-07-20T10:48:22.157Z,34.70
2018-07-20T10:49:22.118Z,34.73
2018-07-20T10:51:15.002Z,35.02
2018-07-20T10:52:14.981Z,34.50
2018-07-20T10:54:08.005Z,34.77
2018-07-20T10:55:07.986Z,35.02
2018-07-20T10:57:00.992Z,35.29
2018-07-20T10:58:00.835Z,35.11
2018-07-20T10:59:53.688Z,34.96
2018-07-20T11:00:53.647Z,35.22
2018-07-20T11:02:46.707Z,35.51
2018-07-20T11:03:46.701Z,35.11
2018-07-20T11:05:39.866Z,34.70
2018-07-20T11:06:39.878Z,34.57
2018-07-20T11:08:32.910Z,34.60
2018-07-20T11:09:32.875Z,34.61
2018-07-20T11:11:26.146Z,34.78
2018-07-20T11:12:26.091Z,35.17
2018-07-20T11:14:19.138Z,35.14
2018-07-20T11:15:19.112Z,35.39
2018-07-20T11:17:12.322Z,35.71
2018-07-20T11:18:12.287Z,35.85
2018-07-20T11:20:05.346Z,36.31
2018-07-20T11:21:05.348Z,36.40
2018-07-20T11:22:58.652Z,36.47
2018-07-20T11:23:58.616Z,36.39
2018-07-20T11:25:51.637Z,36.18
2018-07-20T11:26:51.619Z,36.31
2018-07-20T11:28:44.478Z,35.58
2018-07-20T11:29:44.452Z,35.53
2018-07-20T11:31:37.505Z,35.61
2018-07-20T11:32:37.485Z,35.63
2018-07-20T11:34:30.556Z,35.27
2018-07-20T11:35:30.519Z,35.22
2018-07-20T11:37:23.453Z,35.23
2018-07-20T11:38:23.421Z,35.17
2018-07-20T11:40:16.503Z,35.26
2018-07-20T11:41:16.468Z,35.49
2018-07-20T11:43:09.530Z,36.00
2018-07-20T11:44:09.489Z,36.17
2018-07-20T11:46:02.482Z,35.60
2018-07-20T11:47:02.339Z,35.51
2018-07-20T11:48:55.393Z,35.85
2018-07-20T11:49:55.354Z,35.93
2018-07-20T11:51:48.189Z,36.49
2018-07-20T11:52:48.181Z,36.68
2018-07-20T11:54:41.562Z,36.35
2018-07-20T11:55:41.523Z,36.43
2018-07-20T11:57:34.559Z,35.64
2018-07-20T11:58:34.557Z,35.34
2018-07-20T12:00:27.434Z,35.79
2018-07-20T12:01:27.419Z,36.09
2018-07-20T12:03:20.449Z,36.51
2018-07-20T12:04:20.407Z,36.16
2018-07-20T12:06:13.523Z,35.93
2018-07-20T12:07:13.424Z,36.05
2018-07-20T12:09:06.503Z,35.92
2018-07-20T12:10:06.472Z,36.17
2018-07-20T12:11:59.340Z,36.05
2018-07-20T12:12:59.305Z,35.23
2018-07-20T12:14:52.531Z,35.10
2018-07-20T12:15:52.458Z,35.34
2018-07-20T12:17:45.524Z,35.63
2018-07-20T12:18:45.499Z,35.61
2018-07-20T12:20:38.549Z,35.10
2018-07-20T12:21:38.518Z,35.51
2018-07-20T12:23:31.593Z,35.53
2018-07-20T12:24:31.575Z,36.18
2018-07-20T12:26:24.655Z,36.55
2018-07-20T12:27:24.613Z,36.08
2018-07-20T12:29:17.751Z,35.61
2018-07-20T12:30:17.733Z,36.12
2018-07-20T12:32:10.589Z,37.02
2018-07-20T12:33:10.578Z,37.40
2018-07-20T12:35:03.403Z,37.39
2018-07-20T12:36:03.378Z,37.10
2018-07-20T12:37:56.589Z,37.23
2018-07-20T12:38:56.549Z,37.72
2018-07-20T12:40:49.661Z,37.74
2018-07-20T12:41:49.619Z,37.93
2018-07-20T12:43:42.759Z,38.08
2018-07-20T12:44:42.711Z,37.83
2018-07-20T12:46:35.784Z,37.87
2018-07-20T12:47:35.764Z,37.75
2018-07-20T12:49:28.843Z,37.78
2018-07-20T12:50:28.844Z,37.83
2018-07-20T12:52:21.885Z,37.67
2018-07-20T12:53:21.847Z,37.56
2018-07-20T12:55:14.879Z,37.75
2018-07-20T12:56:14.857Z,37.53
2018-07-20T12:58:07.939Z,37.67
2018-07-20T12:59:07.897Z,37.42
2018-07-20T13:01:01.028Z,37.35
2018-07-20T13:02:01.016Z,37.11
2018-07-20T13:03:53.902Z,37.72
2018-07-20T13:04:53.840Z,37.39
2018-07-20T13:06:46.761Z,37.32
2018-07-20T13:07:46.661Z,37.36
2018-07-20T13:09:39.748Z,36.91
2018-07-20T13:10:39.707Z,36.72
2018-07-20T13:12:33.001Z,37.60
2018-07-20T13:13:32.867Z,37.89
2018-07-20T13:15:25.927Z,37.56
2018-07-20T13:16:25.903Z,37.35
2018-07-20T13:18:19.213Z,36.76
2018-07-20T13:19:19.075Z,36.79
2018-07-20T13:21:11.917Z,36.91
2018-07-20T13:22:11.886Z,37.03
2018-07-20T13:24:04.953Z,36.86
2018-07-20T13:25:04.912Z,36.68
2018-07-20T13:26:58.043Z,36.35
2018-07-20T13:27:58.020Z,36.35
2018-07-20T13:29:51.118Z,36.89
2018-07-20T13:30:51.067Z,36.59
2018-07-20T13:32:44.323Z,36.76
2018-07-20T13:33:44.296Z,36.83
2018-07-20T13:35:37.351Z,36.77
2018-07-20T13:36:37.331Z,37.08
2018-07-20T13:38:30.542Z,36.72
2018-07-20T13:39:30.507Z,36.61
2018-07-20T13:41:24.993Z,36.91
2018-07-20T13:42:23.602Z,37.11
2018-07-20T13:44:16.792Z,36.95
2018-07-20T13:45:16.781Z,36.67
2018-07-20T13:47:09.623Z,36.07
2018-07-20T13:48:09.584Z,35.85
2018-07-20T13:50:02.457Z,36.01
2018-07-20T13:51:02.417Z,36.12
2018-07-20T13:52:55.661Z,35.80
2018-07-20T13:53:55.567Z,35.82
2018-07-20T13:55:48.628Z,35.79
2018-07-20T13:56:48.583Z,35.95
2018-07-20T13:58:41.442Z,36.04
2018-07-20T13:59:41.403Z,35.63
2018-07-20T14:01:34.297Z,35.63
2018-07-20T14:02:34.253Z,35.79
2018-07-20T14:04:27.613Z,36.02
2018-07-20T14:05:27.588Z,36.02
2018-07-20T14:07:20.487Z,35.76
2018-07-20T14:08:20.468Z,35.86
2018-07-20T14:10:13.334Z,35.79
2018-07-20T14:11:13.283Z,35.92
2018-07-20T14:13:06.334Z,36.42
2018-07-20T14:14:06.328Z,36.33
2018-07-20T14:15:59.533Z,36.18
2018-07-20T14:16:59.485Z,36.12
2018-07-20T14:18:52.550Z,35.95
2018-07-20T14:19:52.537Z,35.89
2018-07-20T14:21:45.769Z,36.51
2018-07-20T14:22:45.713Z,36.25
2018-07-20T14:24:38.754Z,36.57
2018-07-20T14:25:38.853Z,36.65
2018-07-20T14:27:31.550Z,36.52
2018-07-20T14:28:31.555Z,36.64
2018-07-20T14:30:24.408Z,35.76
2018-07-20T14:31:24.418Z,35.85
2018-07-20T14:33:17.403Z,35.86
2018-07-20T14:34:17.386Z,35.51
2018-07-20T14:36:10.469Z,35.56
2018-07-20T14:37:10.430Z,35.76
2018-07-20T14:39:03.285Z,35.58
2018-07-20T14:40:03.371Z,35.36
2018-07-20T14:41:56.328Z,35.67
2018-07-20T14:42:56.308Z,35.78
2018-07-20T14:44:49.353Z,35.85
2018-07-20T14:45:49.431Z,35.58
2018-07-20T14:47:42.441Z,35.64
2018-07-20T14:48:42.390Z,35.55
2018-07-20T14:50:35.459Z,35.90
2018-07-20T14:51:35.407Z,35.92
2018-07-20T14:53:28.615Z,35.18
2018-07-20T14:54:28.568Z,35.07
2018-07-20T14:56:21.619Z,35.02
2018-07-20T14:57:21.575Z,35.02
2018-07-20T14:59:14.761Z,34.97
2018-07-20T15:00:14.719Z,35.00
2018-07-20T15:02:07.579Z,34.78
2018-07-20T15:03:07.551Z,34.86
2018-07-20T15:05:00.591Z,34.78
2018-07-20T15:06:00.560Z,34.75
2018-07-20T15:07:53.415Z,34.67
2018-07-20T15:08:53.381Z,34.25
2018-07-20T15:10:46.444Z,33.90
2018-07-20T15:11:46.406Z,33.15
2018-07-20T15:13:39.484Z,32.78
2018-07-20T15:14:39.440Z,32.92
2018-07-20T15:16:32.354Z,33.22
2018-07-20T15:17:32.306Z,33.28
2018-07-20T15:19:25.381Z,33.20
2018-07-20T15:20:25.356Z,33.20
2018-07-20T15:22:18.212Z,32.90
2018-07-20T15:23:18.172Z,32.95
2018-07-20T15:25:11.001Z,32.55
2018-07-20T15:26:10.972Z,32.49
2018-07-20T15:28:04.067Z,32.31
2018-07-20T15:29:04.046Z,32.31
2018-07-20T15:30:57.093Z,32.46
2018-07-20T15:31:57.062Z,32.43
2018-07-20T15:33:50.092Z,32.48
2018-07-20T15:34:50.030Z,32.55
2018-07-20T15:36:43.050Z,32.64
2018-07-20T15:37:43.027Z,32.70
2018-07-20T15:39:36.165Z,32.63
2018-07-20T15:40:36.016Z,32.52
2018-07-20T15:42:28.913Z,32.56
2018-07-20T15:43:28.935Z,32.43
2018-07-20T15:45:21.922Z,32.29
2018-07-20T15:46:21.969Z,32.33
2018-07-20T15:48:15.275Z,31.99
2018-07-20T15:49:15.177Z,31.85
2018-07-20T15:51:08.207Z,31.76
2018-07-20T15:54:01.599Z,31.84
2018-07-20T15:55:01.335Z,31.87
2018-07-20T15:56:54.376Z,31.62
2018-07-20T15:57:54.369Z,31.66
2018-07-20T15:59:47.575Z,31.43
2018-07-20T16:00:47.396Z,31.25
2018-07-20T16:02:40.214Z,31.20
2018-07-20T16:03:40.184Z,31.18
2018-07-20T16:05:33.048Z,31.27
2018-07-20T16:06:32.980Z,31.31
2018-07-20T16:08:27.342Z,31.36
2018-07-20T16:09:27.278Z,31.42
2018-07-20T16:11:20.136Z,31.39
2018-07-20T16:12:20.083Z,31.43
2018-07-20T16:14:12.934Z,31.31
2018-07-20T16:15:12.907Z,31.15
2018-07-20T16:17:06.024Z,30.99
2018-07-20T16:18:05.929Z,30.96
2018-07-20T16:19:58.836Z,30.77
2018-07-20T16:20:58.802Z,30.66
2018-07-20T16:22:51.931Z,30.46
2018-07-20T16:23:51.818Z,30.43
2018-07-20T16:25:44.774Z,30.25
2018-07-20T16:26:44.619Z,30.19
2018-07-20T16:28:37.855Z,30.21
2018-07-20T16:29:37.788Z,30.25
2018-07-20T16:31:30.814Z,30.13
2018-07-20T16:32:30.773Z,30.10
2018-07-20T16:34:23.809Z,29.91
2018-07-20T16:35:23.773Z,29.87
2018-07-20T16:37:16.643Z,29.53
2018-07-20T16:38:16.585Z,29.29
2018-07-20T16:40:09.409Z,29.23
2018-07-20T16:41:09.411Z,29.22
2018-07-20T16:43:02.435Z,29.19
2018-07-20T16:44:02.438Z,28.91
2018-07-20T16:45:55.633Z,28.62
2018-07-20T16:46:55.527Z,28.54
2018-07-20T16:48:48.570Z,28.02
2018-07-20T16:49:48.540Z,27.85
2018-07-20T16:51:41.537Z,28.04
2018-07-20T16:52:41.515Z,27.90
2018-07-20T16:54:34.571Z,27.65
2018-07-20T16:55:34.504Z,27.73
2018-07-20T16:57:27.541Z,27.45
2018-07-20T16:58:27.496Z,27.51
2018-07-20T17:00:20.687Z,27.32
2018-07-20T17:01:20.629Z,27.15
2018-07-20T17:03:13.826Z,26.92
2018-07-20T17:04:13.789Z,26.88
2018-07-20T17:06:06.969Z,26.88
2018-07-20T17:07:06.944Z,26.77
2018-07-20T17:09:00.059Z,26.77
2018-07-20T17:10:00.001Z,26.73
2018-07-20T17:11:53.191Z,26.66
2018-07-20T17:12:53.160Z,26.58
2018-07-20T17:14:46.258Z,26.41
2018-07-20T17:15:46.201Z,26.45
2018-07-20T17:17:39.388Z,26.43
2018-07-20T17:18:39.359Z,26.40
2018-07-20T17:20:32.463Z,26.34
2018-07-20T17:21:32.411Z,26.40
2018-07-20T17:23:25.576Z,26.15
2018-07-20T17:24:25.545Z,26.23
2018-07-20T17:26:18.593Z,26.22
2018-07-20T17:27:18.647Z,26.22
2018-07-20T17:29:11.841Z,26.21
2018-07-20T17:30:11.689Z,26.03
2018-07-20T17:32:05.028Z,26.18
2018-07-20T17:33:04.981Z,26.16
2018-07-20T17:34:57.908Z,26.16
2018-07-20T17:35:57.876Z,26.22
2018-07-20T17:37:50.934Z,26.19
2018-07-20T17:38:50.881Z,26.10
2018-07-20T17:40:43.916Z,26.03
2018-07-20T17:41:43.876Z,25.93
2018-07-20T17:43:36.696Z,26.06
2018-07-20T17:44:36.676Z,26.06
2018-07-20T17:46:29.880Z,26.05
2018-07-20T17:47:29.815Z,25.91
2018-07-20T17:49:22.852Z,25.81
2018-07-20T17:50:22.817Z,25.63
2018-07-20T17:52:15.772Z,25.77
2018-07-20T17:53:15.618Z,25.72
2018-07-20T17:55:08.682Z,25.84
2018-07-20T17:56:08.628Z,25.84
2018-07-20T17:58:01.687Z,25.73
2018-07-20T17:59:01.637Z,25.75
2018-07-20T18:00:54.709Z,25.75
2018-07-20T18:01:54.657Z,25.73
2018-07-20T18:03:47.723Z,25.68
2018-07-20T18:04:47.717Z,25.78
2018-07-20T18:06:40.925Z,25.68
2018-07-20T18:07:40.811Z,25.73
2018-07-20T18:09:33.648Z,25.73
2018-07-20T18:10:33.616Z,25.70
2018-07-20T18:12:26.691Z,25.78
2018-07-20T18:13:26.642Z,25.75
2018-07-20T18:15:19.821Z,25.77
2018-07-20T18:16:19.771Z,25.75
2018-07-20T18:18:12.833Z,25.81
2018-07-20T18:19:12.781Z,25.83
2018-07-20T18:21:05.983Z,25.75
2018-07-20T18:22:05.972Z,25.83
2018-07-20T18:23:59.014Z,25.87
2018-07-20T18:24:58.946Z,25.90
2018-07-20T18:26:52.253Z,26.03
2018-07-20T18:27:52.069Z,25.95
2018-07-20T18:29:45.115Z,26.09
2018-07-20T18:30:45.078Z,26.07
2018-07-20T18:32:38.103Z,26.03
2018-07-20T18:33:38.099Z,26.06
2018-07-20T18:35:31.143Z,26.05